sensor_id;sensor_type;location;lat;lon;timestamp;pressure;altitude;pressure_sealevel;temperature;humidity
71344;BME280;59146;43.850;25.948;2023-04-02T00:01:47;99869.50;;;9.73;83.65
71344;BME280;59146;43.850;25.948;2023-04-02T00:06:47;99851.03;;;9.76;82.90
71344;BME280;59146;43.850;25.948;2023-04-02T00:11:42;99799.06;;;9.48;82.76
71344;BME280;59146;43.850;25.948;2023-04-02T00:16:41;99801.38;;;9.52;81.89
71344;BME280;59146;43.850;25.948;2023-04-02T00:19:13;99812.75;;;9.64;82.13
71344;BME280;59146;43.850;25.948;2023-04-02T00:21:42;99857.41;;;9.97;81.74
71344;BME280;59146;43.850;25.948;2023-04-02T00:24:16;99846.78;;;9.75;81.89
71344;BME280;59146;43.850;25.948;2023-04-02T00:26:51;99817.03;;;9.52;82.56
71344;BME280;59146;43.850;25.948;2023-04-02T00:29:17;99819.00;;;9.61;81.95
71344;BME280;59146;43.850;25.948;2023-04-02T00:31:46;99810.66;;;9.56;81.70
71344;BME280;59146;43.850;25.948;2023-04-02T00:34:22;99848.44;;;9.76;82.03
71344;BME280;59146;43.850;25.948;2023-04-02T00:36:48;99736.19;;;9.15;82.26
71344;BME280;59146;43.850;25.948;2023-04-02T00:39:21;99882.16;;;10.04;81.45
71344;BME280;59146;43.850;25.948;2023-04-02T00:41:53;99876.75;;;9.95;81.86
71344;BME280;59146;43.850;25.948;2023-04-02T00:44:29;99862.97;;;9.93;81.79
71344;BME280;59146;43.850;25.948;2023-04-02T00:46:57;99846.66;;;9.89;82.25
71344;BME280;59146;43.850;25.948;2023-04-02T00:49:35;99819.97;;;9.73;81.25
71344;BME280;59146;43.850;25.948;2023-04-02T00:52:09;99856.69;;;9.95;81.11
71344;BME280;59146;43.850;25.948;2023-04-02T00:57:44;99819.09;;;9.60;81.13
71344;BME280;59146;43.850;25.948;2023-04-02T01:00:31;99867.34;;;10.05;81.57
71344;BME280;59146;43.850;25.948;2023-04-02T01:05:46;99847.94;;;9.96;80.98
71344;BME280;59146;43.850;25.948;2023-04-02T01:17:02;99873.81;;;10.37;79.86
71344;BME280;59146;43.850;25.948;2023-04-02T01:25:23;99802.00;;;9.56;81.34
71344;BME280;59146;43.850;25.948;2023-04-02T01:27:56;99696.66;;;8.96;81.26
71344;BME280;59146;43.850;25.948;2023-04-02T01:30:29;99806.81;;;9.62;81.90
71344;BME280;59146;43.850;25.948;2023-04-02T01:32:55;99859.72;;;10.02;81.50
71344;BME280;59146;43.850;25.948;2023-04-02T01:35:20;99799.09;;;9.60;81.88
71344;BME280;59146;43.850;25.948;2023-04-02T01:37:58;99879.84;;;10.00;81.86
71344;BME280;59146;43.850;25.948;2023-04-02T01:40:44;99876.81;;;9.93;82.88
71344;BME280;59146;43.850;25.948;2023-04-02T01:43:21;99864.81;;;9.91;82.63
71344;BME280;59146;43.850;25.948;2023-04-02T01:45:50;99854.59;;;10.00;82.45
71344;BME280;59146;43.850;25.948;2023-04-02T01:48:21;99797.50;;;9.45;82.61
71344;BME280;59146;43.850;25.948;2023-04-02T01:50:50;99855.22;;;9.91;82.31
71344;BME280;59146;43.850;25.948;2023-04-02T01:53:20;99794.91;;;9.58;81.63
71344;BME280;59146;43.850;25.948;2023-04-02T01:58:16;99813.88;;;9.47;82.24
71344;BME280;59146;43.850;25.948;2023-04-02T02:01:04;99888.63;;;9.99;81.73
71344;BME280;59146;43.850;25.948;2023-04-02T02:03:32;99889.06;;;10.05;81.03
71344;BME280;59146;43.850;25.948;2023-04-02T02:05:59;99851.03;;;9.76;81.00
71344;BME280;59146;43.850;25.948;2023-04-02T02:08:36;99891.56;;;9.94;81.30
71344;BME280;59146;43.850;25.948;2023-04-02T02:11:02;99841.66;;;9.74;80.72
71344;BME280;59146;43.850;25.948;2023-04-02T02:13:28;99780.09;;;9.46;80.48
71344;BME280;59146;43.850;25.948;2023-04-02T02:16:00;99839.88;;;9.74;80.43
71344;BME280;59146;43.850;25.948;2023-04-02T02:18:27;99881.63;;;9.99;80.24
71344;BME280;59146;43.850;25.948;2023-04-02T02:20:55;99860.84;;;9.85;80.45
71344;BME280;59146;43.850;25.948;2023-04-02T02:23:21;99834.97;;;9.57;80.68
71344;BME280;59146;43.850;25.948;2023-04-02T02:25:47;99893.44;;;9.92;80.78
71344;BME280;59146;43.850;25.948;2023-04-02T02:28:28;99825.97;;;9.36;80.97
71344;BME280;59146;43.850;25.948;2023-04-02T02:31:01;99820.97;;;9.45;80.19
71344;BME280;59146;43.850;25.948;2023-04-02T02:33:42;99859.59;;;9.78;79.79
71344;BME280;59146;43.850;25.948;2023-04-02T02:36:23;99886.94;;;9.85;79.76
71344;BME280;59146;43.850;25.948;2023-04-02T02:38:57;99894.56;;;9.88;80.21
71344;BME280;59146;43.850;25.948;2023-04-02T02:41:40;99923.47;;;9.85;80.56
71344;BME280;59146;43.850;25.948;2023-04-02T02:46:53;99878.16;;;9.61;81.06
71344;BME280;59146;43.850;25.948;2023-04-02T02:49:26;99871.09;;;9.36;80.77
71344;BME280;59146;43.850;25.948;2023-04-02T02:52:11;99903.59;;;9.70;81.17
71344;BME280;59146;43.850;25.948;2023-04-02T02:54:39;99905.69;;;9.65;80.68
71344;BME280;59146;43.850;25.948;2023-04-02T02:57:13;99911.31;;;9.59;80.69
71344;BME280;59146;43.850;25.948;2023-04-02T02:59:41;99851.81;;;9.39;80.69
71344;BME280;59146;43.850;25.948;2023-04-02T03:02:07;99816.72;;;9.18;80.30
71344;BME280;59146;43.850;25.948;2023-04-02T03:04:32;99857.16;;;9.50;80.04
71344;BME280;59146;43.850;25.948;2023-04-02T03:07:02;99856.31;;;9.49;80.28
71344;BME280;59146;43.850;25.948;2023-04-02T03:12:31;99926.28;;;9.82;80.22
71344;BME280;59146;43.850;25.948;2023-04-02T03:15:09;99929.22;;;9.90;80.64
71344;BME280;59146;43.850;25.948;2023-04-02T03:17:59;99897.16;;;9.76;80.46
71344;BME280;59146;43.850;25.948;2023-04-02T03:23:05;99939.25;;;9.96;80.25
71344;BME280;59146;43.850;25.948;2023-04-02T03:25:42;99836.81;;;9.42;80.20
71344;BME280;59146;43.850;25.948;2023-04-02T03:28:15;99872.31;;;9.70;80.22
71344;BME280;59146;43.850;25.948;2023-04-02T03:31:06;99916.59;;;9.84;80.83
71344;BME280;59146;43.850;25.948;2023-04-02T03:33:43;99848.19;;;9.54;80.53
71344;BME280;59146;43.850;25.948;2023-04-02T03:36:24;99935.06;;;10.06;80.01
71344;BME280;59146;43.850;25.948;2023-04-02T03:39:17;99943.19;;;10.02;80.59
71344;BME280;59146;43.850;25.948;2023-04-02T03:41:47;99875.88;;;9.69;80.33
71344;BME280;59146;43.850;25.948;2023-04-02T03:44:20;99931.81;;;9.90;80.32
71344;BME280;59146;43.850;25.948;2023-04-02T03:46:53;99897.69;;;9.81;79.72
71344;BME280;59146;43.850;25.948;2023-04-02T03:54:21;99914.69;;;9.74;79.92
71344;BME280;59146;43.850;25.948;2023-04-02T03:56:46;99938.91;;;9.76;80.72
71344;BME280;59146;43.850;25.948;2023-04-02T03:59:38;99966.38;;;10.06;79.79
71344;BME280;59146;43.850;25.948;2023-04-02T04:02:14;99883.13;;;9.51;79.71
71344;BME280;59146;43.850;25.948;2023-04-02T04:04:44;99769.88;;;8.91;79.87
71344;BME280;59146;43.850;25.948;2023-04-02T04:07:28;99916.03;;;9.79;79.54
71344;BME280;59146;43.850;25.948;2023-04-02T04:09:55;99947.38;;;9.92;79.23
71344;BME280;59146;43.850;25.948;2023-04-02T04:12:39;99952.06;;;9.99;79.31
71344;BME280;59146;43.850;25.948;2023-04-02T04:17:39;99986.78;;;10.14;79.47
71344;BME280;59146;43.850;25.948;2023-04-02T04:20:16;99989.50;;;10.25;79.31
71344;BME280;59146;43.850;25.948;2023-04-02T04:22:47;99932.28;;;9.70;79.87
71344;BME280;59146;43.850;25.948;2023-04-02T04:25:28;99970.41;;;9.85;80.88
71344;BME280;59146;43.850;25.948;2023-04-02T04:30:36;100014.28;;;9.93;82.66
71344;BME280;59146;43.850;25.948;2023-04-02T04:33:33;100000.06;;;9.84;84.06
71344;BME280;59146;43.850;25.948;2023-04-02T04:35:59;100012.56;;;9.79;84.66
71344;BME280;59146;43.850;25.948;2023-04-02T04:38:37;99991.47;;;9.70;84.68
71344;BME280;59146;43.850;25.948;2023-04-02T04:41:12;100021.56;;;9.88;85.58
71344;BME280;59146;43.850;25.948;2023-04-02T04:43:42;100025.75;;;9.90;85.16
71344;BME280;59146;43.850;25.948;2023-04-02T04:51:20;100003.25;;;9.75;85.47
71344;BME280;59146;43.850;25.948;2023-04-02T04:53:49;100028.38;;;9.76;85.67
71344;BME280;59146;43.850;25.948;2023-04-02T04:56:25;100013.44;;;9.66;85.61
71344;BME280;59146;43.850;25.948;2023-04-02T05:04:17;100052.56;;;9.92;85.68
71344;BME280;59146;43.850;25.948;2023-04-02T05:09:18;100028.44;;;9.89;85.25
71344;BME280;59146;43.850;25.948;2023-04-02T05:11:55;100026.72;;;9.75;85.23
71344;BME280;59146;43.850;25.948;2023-04-02T05:17:04;100018.41;;;9.56;85.14
71344;BME280;59146;43.850;25.948;2023-04-02T05:19:40;100022.09;;;9.66;85.39
71344;BME280;59146;43.850;25.948;2023-04-02T05:22:29;100046.09;;;9.98;84.41
71344;BME280;59146;43.850;25.948;2023-04-02T05:35:49;100037.75;;;9.93;82.19
71344;BME280;59146;43.850;25.948;2023-04-02T05:38:20;100073.19;;;10.09;82.53
71344;BME280;59146;43.850;25.948;2023-04-02T05:40:50;99982.25;;;9.64;82.71
71344;BME280;59146;43.850;25.948;2023-04-02T05:43:19;100101.66;;;10.39;82.61
71344;BME280;59146;43.850;25.948;2023-04-02T05:45:54;100054.38;;;10.04;82.79
71344;BME280;59146;43.850;25.948;2023-04-02T05:48:32;100127.06;;;10.50;82.19
71344;BME280;59146;43.850;25.948;2023-04-02T05:51:00;100085.97;;;10.26;81.92
71344;BME280;59146;43.850;25.948;2023-04-02T05:53:48;100108.81;;;10.50;81.49
71344;BME280;59146;43.850;25.948;2023-04-02T05:56:25;100124.13;;;10.42;81.88
71344;BME280;59146;43.850;25.948;2023-04-02T05:59:01;100113.50;;;10.45;81.85
71344;BME280;59146;43.850;25.948;2023-04-02T06:07:02;100053.41;;;10.19;79.71
71344;BME280;59146;43.850;25.948;2023-04-02T06:09:39;100016.78;;;9.94;79.49
71344;BME280;59146;43.850;25.948;2023-04-02T06:14:49;100075.50;;;10.14;79.33
71344;BME280;59146;43.850;25.948;2023-04-02T06:17:17;100136.00;;;10.60;79.65
71344;BME280;59146;43.850;25.948;2023-04-02T06:19:43;100105.53;;;10.33;79.17
71344;BME280;59146;43.850;25.948;2023-04-02T06:22:34;100148.94;;;10.49;80.63
71344;BME280;59146;43.850;25.948;2023-04-02T06:27:33;100129.06;;;10.46;80.00
71344;BME280;59146;43.850;25.948;2023-04-02T06:30:02;100118.19;;;10.39;79.83
71344;BME280;59146;43.850;25.948;2023-04-02T06:32:31;100075.13;;;10.06;79.86
71344;BME280;59146;43.850;25.948;2023-04-02T06:34:57;100075.75;;;10.23;79.96
71344;BME280;59146;43.850;25.948;2023-04-02T06:37:28;100111.97;;;10.55;79.60
71344;BME280;59146;43.850;25.948;2023-04-02T06:39:56;100096.09;;;10.58;79.04
71344;BME280;59146;43.850;25.948;2023-04-02T06:44:53;100159.97;;;11.04;78.54
71344;BME280;59146;43.850;25.948;2023-04-02T06:50:00;100104.03;;;10.69;78.83
71344;BME280;59146;43.850;25.948;2023-04-02T06:52:49;100167.81;;;11.29;78.26
71344;BME280;59146;43.850;25.948;2023-04-02T06:57:53;100094.84;;;11.01;76.36
71344;BME280;59146;43.850;25.948;2023-04-02T07:00:40;100173.03;;;11.54;76.59
71344;BME280;59146;43.850;25.948;2023-04-02T07:03:28;100150.88;;;11.72;76.37
71344;BME280;59146;43.850;25.948;2023-04-02T07:05:54;100091.03;;;11.43;74.93
71344;BME280;59146;43.850;25.948;2023-04-02T07:08:19;100102.03;;;11.48;74.92
71344;BME280;59146;43.850;25.948;2023-04-02T07:10:45;100120.56;;;11.93;74.46
71344;BME280;59146;43.850;25.948;2023-04-02T07:13:16;100172.31;;;12.14;74.43
71344;BME280;59146;43.850;25.948;2023-04-02T07:15:45;100184.13;;;12.43;73.79
71344;BME280;59146;43.850;25.948;2023-04-02T07:20:46;100129.41;;;12.04;74.79
71344;BME280;59146;43.850;25.948;2023-04-02T07:23:11;100114.44;;;12.06;73.98
71344;BME280;59146;43.850;25.948;2023-04-02T07:25:38;100123.56;;;12.00;74.85
71344;BME280;59146;43.850;25.948;2023-04-02T07:28:03;100179.16;;;12.51;74.07
71344;BME280;59146;43.850;25.948;2023-04-02T07:30:29;100146.06;;;12.26;73.91
71344;BME280;59146;43.850;25.948;2023-04-02T07:32:54;100204.28;;;12.77;72.53
71344;BME280;59146;43.850;25.948;2023-04-02T07:35:20;100114.78;;;12.36;72.80
71344;BME280;59146;43.850;25.948;2023-04-02T07:37:45;100122.44;;;12.39;71.08
71344;BME280;59146;43.850;25.948;2023-04-02T07:40:18;100139.72;;;12.41;72.97
71344;BME280;59146;43.850;25.948;2023-04-02T07:42:45;100175.47;;;12.77;70.94
71344;BME280;59146;43.850;25.948;2023-04-02T07:45:11;100117.38;;;12.59;71.51
71344;BME280;59146;43.850;25.948;2023-04-02T07:47:36;100145.94;;;12.97;69.46
71344;BME280;59146;43.850;25.948;2023-04-02T07:50:02;100193.00;;;13.22;70.10
71344;BME280;59146;43.850;25.948;2023-04-02T07:52:27;100173.72;;;13.00;69.09
71344;BME280;59146;43.850;25.948;2023-04-02T07:54:53;100135.66;;;12.37;70.83
71344;BME280;59146;43.850;25.948;2023-04-02T07:57:18;100152.75;;;12.54;71.54
71344;BME280;59146;43.850;25.948;2023-04-02T07:59:45;100173.38;;;12.58;70.16
71344;BME280;59146;43.850;25.948;2023-04-02T08:02:18;100198.78;;;12.69;70.04
71344;BME280;59146;43.850;25.948;2023-04-02T08:04:45;100100.38;;;11.83;70.74
71344;BME280;59146;43.850;25.948;2023-04-02T08:07:11;100207.09;;;12.63;70.55
71344;BME280;59146;43.850;25.948;2023-04-02T08:09:36;100152.53;;;12.68;68.82
71344;BME280;59146;43.850;25.948;2023-04-02T08:12:02;100136.31;;;12.52;69.03
71344;BME280;59146;43.850;25.948;2023-04-02T08:14:27;100201.31;;;12.82;69.24
71344;BME280;59146;43.850;25.948;2023-04-02T08:16:53;100197.81;;;12.70;70.48
71344;BME280;59146;43.850;25.948;2023-04-02T08:19:20;100194.47;;;12.68;70.28
71344;BME280;59146;43.850;25.948;2023-04-02T08:21:46;100204.88;;;12.81;69.00
71344;BME280;59146;43.850;25.948;2023-04-02T08:24:15;100152.22;;;12.49;69.33
71344;BME280;59146;43.850;25.948;2023-04-02T08:26:46;100198.44;;;12.50;71.16
71344;BME280;59146;43.850;25.948;2023-04-02T08:29:12;100165.06;;;12.41;70.54
71344;BME280;59146;43.850;25.948;2023-04-02T08:31:38;100155.81;;;12.48;70.96
71344;BME280;59146;43.850;25.948;2023-04-02T08:34:03;100196.47;;;12.99;70.42
71344;BME280;59146;43.850;25.948;2023-04-02T08:36:33;100217.81;;;13.29;68.83
71344;BME280;59146;43.850;25.948;2023-04-02T08:38:59;100181.56;;;13.45;68.03
71344;BME280;59146;43.850;25.948;2023-04-02T08:41:26;100073.94;;;12.68;67.04
71344;BME280;59146;43.850;25.948;2023-04-02T08:48:59;100212.22;;;13.56;68.27
71344;BME280;59146;43.850;25.948;2023-04-02T08:51:31;100221.56;;;13.82;67.90
71344;BME280;59146;43.850;25.948;2023-04-02T08:54:02;100226.19;;;14.01;67.05
71344;BME280;59146;43.850;25.948;2023-04-02T08:56:54;100214.84;;;14.11;66.08
71344;BME280;59146;43.850;25.948;2023-04-02T08:59:34;100182.13;;;14.15;64.74
71344;BME280;59146;43.850;25.948;2023-04-02T09:04:32;100186.75;;;14.23;63.51
71344;BME280;59146;43.850;25.948;2023-04-02T09:06:59;100240.91;;;14.57;63.93
71344;BME280;59146;43.850;25.948;2023-04-02T09:09:25;100168.50;;;14.10;63.13
71344;BME280;59146;43.850;25.948;2023-04-02T09:11:59;100215.91;;;14.63;62.45
71344;BME280;59146;43.850;25.948;2023-04-02T09:17:01;100224.84;;;14.71;62.76
71344;BME280;59146;43.850;25.948;2023-04-02T09:19:35;100227.97;;;14.76;62.35
71344;BME280;59146;43.850;25.948;2023-04-02T09:22:20;100210.28;;;14.67;61.66
71344;BME280;59146;43.850;25.948;2023-04-02T09:24:51;100230.31;;;14.79;62.90
71344;BME280;59146;43.850;25.948;2023-04-02T09:27:25;100184.72;;;14.69;62.06
71344;BME280;59146;43.850;25.948;2023-04-02T09:29:54;100148.22;;;14.55;61.80
71344;BME280;59146;43.850;25.948;2023-04-02T09:34:49;100239.16;;;15.51;61.17
71344;BME280;59146;43.850;25.948;2023-04-02T09:37:30;100186.84;;;15.37;61.57
71344;BME280;59146;43.850;25.948;2023-04-02T09:43:00;100177.16;;;14.96;60.23
71344;BME280;59146;43.850;25.948;2023-04-02T09:45:26;100217.50;;;15.27;58.41
71344;BME280;59146;43.850;25.948;2023-04-02T09:47:54;100225.78;;;15.02;59.82
71344;BME280;59146;43.850;25.948;2023-04-02T09:52:45;100187.50;;;14.88;61.17
71344;BME280;59146;43.850;25.948;2023-04-02T09:57:40;100199.88;;;14.97;60.06
71344;BME280;59146;43.850;25.948;2023-04-02T10:00:26;100250.19;;;15.25;59.30
71344;BME280;59146;43.850;25.948;2023-04-02T10:03:24;100247.63;;;15.34;59.48
71344;BME280;59146;43.850;25.948;2023-04-02T10:06:11;100206.47;;;15.12;60.05
71344;BME280;59146;43.850;25.948;2023-04-02T10:08:39;100101.66;;;14.46;59.84
71344;BME280;59146;43.850;25.948;2023-04-02T10:11:14;100200.50;;;15.10;59.60
71344;BME280;59146;43.850;25.948;2023-04-02T10:16:46;100223.06;;;15.45;59.09
71344;BME280;59146;43.850;25.948;2023-04-02T10:19:24;100273.81;;;15.77;59.18
71344;BME280;59146;43.850;25.948;2023-04-02T10:21:53;100246.41;;;15.59;59.16
71344;BME280;59146;43.850;25.948;2023-04-02T10:24:18;100214.31;;;15.24;58.72
71344;BME280;59146;43.850;25.948;2023-04-02T10:26:59;100215.84;;;15.26;59.27
71344;BME280;59146;43.850;25.948;2023-04-02T10:29:43;100282.66;;;15.76;58.97
71344;BME280;59146;43.850;25.948;2023-04-02T10:32:17;100290.44;;;15.77;59.18
71344;BME280;59146;43.850;25.948;2023-04-02T10:34:56;100188.69;;;15.46;58.54
71344;BME280;59146;43.850;25.948;2023-04-02T10:38:01;100224.66;;;15.87;58.35
71344;BME280;59146;43.850;25.948;2023-04-02T10:44:02;100268.34;;;16.29;58.37
71344;BME280;59146;43.850;25.948;2023-04-02T10:52:00;100265.66;;;17.26;55.89
71344;BME280;59146;43.850;25.948;2023-04-02T10:54:36;100262.94;;;17.74;54.99
71344;BME280;59146;43.850;25.948;2023-04-02T10:57:13;100197.19;;;17.25;55.09
71344;BME280;59146;43.850;25.948;2023-04-02T10:59:48;100244.97;;;17.87;54.68
71344;BME280;59146;43.850;25.948;2023-04-02T11:02:28;100262.53;;;18.43;53.24
71344;BME280;59146;43.850;25.948;2023-04-02T11:04:57;100233.78;;;18.57;51.08
71344;BME280;59146;43.850;25.948;2023-04-02T11:07:27;100198.94;;;18.17;52.11
71344;BME280;59146;43.850;25.948;2023-04-02T11:09:56;100194.34;;;17.92;51.31
71344;BME280;59146;43.850;25.948;2023-04-02T11:12:36;100183.06;;;17.63;51.29
71344;BME280;59146;43.850;25.948;2023-04-02T11:15:03;100213.97;;;18.16;51.61
71344;BME280;59146;43.850;25.948;2023-04-02T11:17:30;100210.88;;;18.21;52.29
71344;BME280;59146;43.850;25.948;2023-04-02T11:23:11;100216.22;;;18.91;48.54
71344;BME280;59146;43.850;25.948;2023-04-02T11:25:37;100218.97;;;18.99;48.64
71344;BME280;59146;43.850;25.948;2023-04-02T11:28:27;100231.06;;;18.84;46.20
71344;BME280;59146;43.850;25.948;2023-04-02T11:30:55;100177.22;;;18.41;47.48
71344;BME280;59146;43.850;25.948;2023-04-02T11:35:55;100141.38;;;18.56;46.62
71344;BME280;59146;43.850;25.948;2023-04-02T11:45:58;100221.69;;;18.55;46.43
71344;BME280;59146;43.850;25.948;2023-04-02T11:48:32;100225.84;;;18.75;44.11
71344;BME280;59146;43.850;25.948;2023-04-02T11:51:00;100207.31;;;18.75;44.26
71344;BME280;59146;43.850;25.948;2023-04-02T11:53:34;100167.59;;;18.40;43.97
71344;BME280;59146;43.850;25.948;2023-04-02T12:07:39;100228.72;;;18.64;47.37
71344;BME280;59146;43.850;25.948;2023-04-02T12:12:41;100165.53;;;18.16;47.88
71344;BME280;59146;43.850;25.948;2023-04-02T12:15:33;100223.59;;;19.23;47.14
71344;BME280;59146;43.850;25.948;2023-04-02T12:18:21;100172.09;;;19.18;46.08
71344;BME280;59146;43.850;25.948;2023-04-02T12:20:52;100148.03;;;18.60;46.01
71344;BME280;59146;43.850;25.948;2023-04-02T12:23:27;100213.00;;;18.45;47.68
71344;BME280;59146;43.850;25.948;2023-04-02T12:26:05;100128.53;;;17.98;47.98
71344;BME280;59146;43.850;25.948;2023-04-02T12:28:32;100156.59;;;17.99;48.09
71344;BME280;59146;43.850;25.948;2023-04-02T12:33:38;100207.03;;;18.15;47.94
71344;BME280;59146;43.850;25.948;2023-04-02T12:36:18;100197.63;;;18.31;47.49
71344;BME280;59146;43.850;25.948;2023-04-02T12:38:52;100213.00;;;18.45;44.77
71344;BME280;59146;43.850;25.948;2023-04-02T12:41:26;100195.69;;;18.50;46.76
71344;BME280;59146;43.850;25.948;2023-04-02T12:44:06;100196.19;;;18.54;45.50
71344;BME280;59146;43.850;25.948;2023-04-02T12:46:38;100112.47;;;18.09;45.39
71344;BME280;59146;43.850;25.948;2023-04-02T12:49:32;100150.47;;;18.26;45.46
71344;BME280;59146;43.850;25.948;2023-04-02T12:52:01;100189.03;;;18.81;44.80
71344;BME280;59146;43.850;25.948;2023-04-02T12:54:28;100181.84;;;19.17;43.75
71344;BME280;59146;43.850;25.948;2023-04-02T12:59:55;100193.28;;;19.35;43.49
71344;BME280;59146;43.850;25.948;2023-04-02T13:02:24;100168.53;;;19.01;43.03
71344;BME280;59146;43.850;25.948;2023-04-02T13:04:56;100162.88;;;18.61;45.02
71344;BME280;59146;43.850;25.948;2023-04-02T13:07:27;100153.44;;;18.41;44.78
71344;BME280;59146;43.850;25.948;2023-04-02T13:09:57;100148.28;;;18.21;45.22
71344;BME280;59146;43.850;25.948;2023-04-02T13:12:30;100147.19;;;18.14;45.83
71344;BME280;59146;43.850;25.948;2023-04-02T13:14:58;100129.38;;;18.16;45.67
71344;BME280;59146;43.850;25.948;2023-04-02T13:17:45;100147.97;;;18.42;45.53
71344;BME280;59146;43.850;25.948;2023-04-02T13:20:30;100204.25;;;19.23;44.46
71344;BME280;59146;43.850;25.948;2023-04-02T13:23:45;100199.38;;;19.61;44.08
71344;BME280;59146;43.850;25.948;2023-04-02T13:25:45;100186.00;;;20.05;42.93
71344;BME280;59146;43.850;25.948;2023-04-02T13:28:11;100003.94;;;19.39;42.19
71344;BME280;59146;43.850;25.948;2023-04-02T13:30:36;100174.16;;;20.25;40.23
71344;BME280;59146;43.850;25.948;2023-04-02T13:33:02;100178.09;;;20.13;41.01
71344;BME280;59146;43.850;25.948;2023-04-02T13:35:27;100137.09;;;19.06;43.19
71344;BME280;59146;43.850;25.948;2023-04-02T13:37:52;100199.47;;;19.77;42.14
71344;BME280;59146;43.850;25.948;2023-04-02T13:40:18;100163.19;;;19.44;42.17
71344;BME280;59146;43.850;25.948;2023-04-02T13:42:44;100170.66;;;19.74;40.11
71344;BME280;59146;43.850;25.948;2023-04-02T13:45:39;100188.34;;;19.74;41.09
71344;BME280;59146;43.850;25.948;2023-04-02T13:48:13;100160.72;;;19.25;41.36
71344;BME280;59146;43.850;25.948;2023-04-02T13:50:39;100133.28;;;19.52;41.33
71344;BME280;59146;43.850;25.948;2023-04-02T13:53:06;100171.31;;;19.76;40.43
71344;BME280;59146;43.850;25.948;2023-04-02T13:55:38;100001.06;;;18.91;40.54
71344;BME280;59146;43.850;25.948;2023-04-02T13:58:05;100144.22;;;19.99;40.52
71344;BME280;59146;43.850;25.948;2023-04-02T14:00:31;99992.81;;;19.02;40.11
71344;BME280;59146;43.850;25.948;2023-04-02T14:03:11;100136.31;;;19.65;39.99
71344;BME280;59146;43.850;25.948;2023-04-02T14:05:52;100097.19;;;19.25;41.67
71344;BME280;59146;43.850;25.948;2023-04-02T14:11:18;100158.94;;;19.51;40.78
71344;BME280;59146;43.850;25.948;2023-04-02T14:19:45;100175.25;;;19.21;43.32
71344;BME280;59146;43.850;25.948;2023-04-02T14:31:16;100142.63;;;18.52;42.57
71344;BME280;59146;43.850;25.948;2023-04-02T14:33:54;100105.91;;;18.13;43.58
71344;BME280;59146;43.850;25.948;2023-04-02T14:42:00;100168.41;;;18.22;44.97
71344;BME280;59146;43.850;25.948;2023-04-02T14:44:34;100110.19;;;18.14;43.74
71344;BME280;59146;43.850;25.948;2023-04-02T14:47:13;100147.13;;;18.42;44.31
71344;BME280;59146;43.850;25.948;2023-04-02T14:49:41;100150.09;;;18.39;43.58
71344;BME280;59146;43.850;25.948;2023-04-02T14:52:13;100014.50;;;17.58;44.13
71344;BME280;59146;43.850;25.948;2023-04-02T14:54:59;100090.16;;;18.12;44.93
71344;BME280;59146;43.850;25.948;2023-04-02T14:57:35;100115.56;;;18.05;44.82
71344;BME280;59146;43.850;25.948;2023-04-02T15:02:44;100169.78;;;18.26;45.99
71344;BME280;59146;43.850;25.948;2023-04-02T15:05:19;100174.19;;;18.18;46.24
71344;BME280;59146;43.850;25.948;2023-04-02T15:07:54;100162.91;;;17.89;46.89
71344;BME280;59146;43.850;25.948;2023-04-02T15:13:19;100115.63;;;17.22;47.46
71344;BME280;59146;43.850;25.948;2023-04-02T15:15:49;100184.22;;;17.41;48.04
71344;BME280;59146;43.850;25.948;2023-04-02T15:18:18;100128.72;;;17.14;48.20
71344;BME280;59146;43.850;25.948;2023-04-02T15:23:33;100183.19;;;17.15;48.67
71344;BME280;59146;43.850;25.948;2023-04-02T15:28:36;100127.25;;;16.44;49.37
71344;BME280;59146;43.850;25.948;2023-04-02T15:31:11;100139.47;;;16.45;49.83
71344;BME280;59146;43.850;25.948;2023-04-02T15:36:35;100207.94;;;16.76;51.52
71344;BME280;59146;43.850;25.948;2023-04-02T15:39:33;100212.38;;;16.85;50.45
71344;BME280;59146;43.850;25.948;2023-04-02T15:42:12;100163.06;;;16.37;51.19
71344;BME280;59146;43.850;25.948;2023-04-02T15:44:46;100166.53;;;16.47;49.95
71344;BME280;59146;43.850;25.948;2023-04-02T15:52:59;100115.88;;;16.34;50.20
71344;BME280;59146;43.850;25.948;2023-04-02T15:55:38;100166.56;;;16.76;49.85
71344;BME280;59146;43.850;25.948;2023-04-02T16:09:06;100074.28;;;16.00;51.32
71344;BME280;59146;43.850;25.948;2023-04-02T16:11:34;100174.31;;;16.39;52.22
71344;BME280;59146;43.850;25.948;2023-04-02T16:14:24;100182.88;;;16.22;53.61
71344;BME280;59146;43.850;25.948;2023-04-02T16:16:52;100198.25;;;16.17;54.07
71344;BME280;59146;43.850;25.948;2023-04-02T16:19:31;100225.88;;;16.23;54.19
71344;BME280;59146;43.850;25.948;2023-04-02T16:22:11;100255.41;;;16.26;54.40
71344;BME280;59146;43.850;25.948;2023-04-02T16:24:38;100260.00;;;16.24;55.26
71344;BME280;59146;43.850;25.948;2023-04-02T16:27:36;100256.38;;;16.16;54.65
71344;BME280;59146;43.850;25.948;2023-04-02T16:30:28;100259.69;;;16.08;55.34
71344;BME280;59146;43.850;25.948;2023-04-02T16:46:53;100282.69;;;15.55;56.87
71344;BME280;59146;43.850;25.948;2023-04-02T16:57:30;100248.75;;;15.00;58.61
71344;BME280;59146;43.850;25.948;2023-04-02T17:05:49;100276.22;;;15.07;57.32
71344;BME280;59146;43.850;25.948;2023-04-02T17:10:55;100241.63;;;14.91;58.03
71344;BME280;59146;43.850;25.948;2023-04-02T17:13:43;100212.44;;;14.62;57.24
71344;BME280;59146;43.850;25.948;2023-04-02T17:18:37;100289.63;;;15.04;57.28
71344;BME280;59146;43.850;25.948;2023-04-02T17:21:06;100259.59;;;14.75;56.92
71344;BME280;59146;43.850;25.948;2023-04-02T17:23:43;100281.91;;;14.91;56.49